sensor_id;sensor_type;location;lat;lon;timestamp;temperature;humidity
10451;DHT22;5273;51.290;6.918;2023-04-03T00:13:07;2.10;99.90
10451;DHT22;5273;51.290;6.918;2023-04-03T00:15:35;2.10;99.90
10451;DHT22;5273;51.290;6.918;2023-04-03T00:30:20;2.00;99.90
10451;DHT22;5273;51.290;6.918;2023-04-03T00:32:47;1.90;99.90
10451;DHT22;5273;51.290;6.918;2023-04-03T00:40:10;2.00;99.90
10451;DHT22;5273;51.290;6.918;2023-04-03T00:45:30;1.90;99.90
10451;DHT22;5273;51.290;6.918;2023-04-03T00:47:58;1.90;99.90
10451;DHT22;5273;51.290;6.918;2023-04-03T00:52:53;1.90;99.90
10451;DHT22;5273;51.290;6.918;2023-04-03T00:57:48;1.80;99.90
10451;DHT22;5273;51.290;6.918;2023-04-03T01:00:18;1.80;99.90
10451;DHT22;5273;51.290;6.918;2023-04-03T01:02:47;1.80;99.90
10451;DHT22;5273;51.290;6.918;2023-04-03T01:05:15;1.80;99.90
10451;DHT22;5273;51.290;6.918;2023-04-03T01:10:12;1.70;99.90
10451;DHT22;5273;51.290;6.918;2023-04-03T01:12:42;1.70;99.90
10451;DHT22;5273;51.290;6.918;2023-04-03T01:15:11;1.70;99.90
10451;DHT22;5273;51.290;6.918;2023-04-03T01:17:40;1.80;99.90
10451;DHT22;5273;51.290;6.918;2023-04-03T01:23:19;1.80;99.90
10451;DHT22;5273;51.290;6.918;2023-04-03T01:25:50;1.80;99.90
10451;DHT22;5273;51.290;6.918;2023-04-03T01:28:20;1.90;99.90
10451;DHT22;5273;51.290;6.918;2023-04-03T01:30:51;1.90;99.90
10451;DHT22;5273;51.290;6.918;2023-04-03T01:33:21;1.90;99.90
10451;DHT22;5273;51.290;6.918;2023-04-03T01:50:32;2.30;99.90
10451;DHT22;5273;51.290;6.918;2023-04-03T02:07:44;2.20;99.90
10451;DHT22;5273;51.290;6.918;2023-04-03T02:15:06;2.10;99.90
10451;DHT22;5273;51.290;6.918;2023-04-03T02:17:34;2.10;99.90
10451;DHT22;5273;51.290;6.918;2023-04-03T02:24:57;2.10;99.90
10451;DHT22;5273;51.290;6.918;2023-04-03T02:42:08;2.10;99.90
10451;DHT22;5273;51.290;6.918;2023-04-03T02:59:22;2.00;99.90
10451;DHT22;5273;51.290;6.918;2023-04-03T03:16:34;1.90;99.90
10451;DHT22;5273;51.290;6.918;2023-04-03T03:33:45;1.80;99.90
10451;DHT22;5273;51.290;6.918;2023-04-03T03:50:55;1.60;99.90
10451;DHT22;5273;51.290;6.918;2023-04-03T04:08:06;1.50;99.90
10451;DHT22;5273;51.290;6.918;2023-04-03T04:25:18;1.40;99.90
10451;DHT22;5273;51.290;6.918;2023-04-03T04:30:13;1.30;99.90
10451;DHT22;5273;51.290;6.918;2023-04-03T04:42:31;1.20;99.90
10451;DHT22;5273;51.290;6.918;2023-04-03T04:59:42;1.20;99.90
10451;DHT22;5273;51.290;6.918;2023-04-03T05:16:53;1.10;99.90
10451;DHT22;5273;51.290;6.918;2023-04-03T05:21:48;1.10;99.90
10451;DHT22;5273;51.290;6.918;2023-04-03T05:34:05;1.20;99.90
10451;DHT22;5273;51.290;6.918;2023-04-03T05:51:18;1.50;99.90
10451;DHT22;5273;51.290;6.918;2023-04-03T05:53:45;1.60;99.90
10451;DHT22;5273;51.290;6.918;2023-04-03T06:06:04;2.00;99.90
10451;DHT22;5273;51.290;6.918;2023-04-03T06:08:32;2.10;99.90
10451;DHT22;5273;51.290;6.918;2023-04-03T06:25:45;3.20;99.90
10451;DHT22;5273;51.290;6.918;2023-04-03T06:38:02;5.70;99.90
10451;DHT22;5273;51.290;6.918;2023-04-03T06:40:30;5.70;97.60
10451;DHT22;5273;51.290;6.918;2023-04-03T06:42:58;7.40;99.70
10451;DHT22;5273;51.290;6.918;2023-04-03T06:45:25;7.30;94.10
10451;DHT22;5273;51.290;6.918;2023-04-03T06:47:51;9.30;92.60
10451;DHT22;5273;51.290;6.918;2023-04-03T06:50:18;8.70;89.50
10451;DHT22;5273;51.290;6.918;2023-04-03T06:52:45;9.30;85.80
10451;DHT22;5273;51.290;6.918;2023-04-03T06:55:12;9.80;85.20
10451;DHT22;5273;51.290;6.918;2023-04-03T06:57:39;10.10;78.00
10451;DHT22;5273;51.290;6.918;2023-04-03T07:00:08;10.10;76.30
10451;DHT22;5273;51.290;6.918;2023-04-03T07:02:36;9.90;76.90
10451;DHT22;5273;51.290;6.918;2023-04-03T07:05:03;10.10;75.60
10451;DHT22;5273;51.290;6.918;2023-04-03T07:07:31;10.70;72.10
10451;DHT22;5273;51.290;6.918;2023-04-03T07:09:59;10.70;71.60
10451;DHT22;5273;51.290;6.918;2023-04-03T07:12:26;11.00;68.90
10451;DHT22;5273;51.290;6.918;2023-04-03T07:14:53;11.00;68.20
10451;DHT22;5273;51.290;6.918;2023-04-03T07:17:21;11.50;66.90
10451;DHT22;5273;51.290;6.918;2023-04-03T07:19:47;12.40;63.80
10451;DHT22;5273;51.290;6.918;2023-04-03T07:22:14;13.20;58.80
10451;DHT22;5273;51.290;6.918;2023-04-03T07:24:41;13.70;57.00
10451;DHT22;5273;51.290;6.918;2023-04-03T07:27:08;14.10;55.30
10451;DHT22;5273;51.290;6.918;2023-04-03T07:29:35;14.00;54.00
10451;DHT22;5273;51.290;6.918;2023-04-03T07:32:02;14.10;53.20
10451;DHT22;5273;51.290;6.918;2023-04-03T07:34:30;14.20;51.70
10451;DHT22;5273;51.290;6.918;2023-04-03T07:36:58;14.00;52.00
10451;DHT22;5273;51.290;6.918;2023-04-03T07:39:25;12.10;49.80
10451;DHT22;5273;51.290;6.918;2023-04-03T07:41:53;14.00;50.70
10451;DHT22;5273;51.290;6.918;2023-04-03T07:44:21;13.50;51.00
10451;DHT22;5273;51.290;6.918;2023-04-03T07:46:47;13.30;51.00
10451;DHT22;5273;51.290;6.918;2023-04-03T07:49:16;13.30;51.20
10451;DHT22;5273;51.290;6.918;2023-04-03T07:51:45;13.50;50.60
10451;DHT22;5273;51.290;6.918;2023-04-03T07:54:12;13.50;49.70
10451;DHT22;5273;51.290;6.918;2023-04-03T07:56:39;14.00;49.10
10451;DHT22;5273;51.290;6.918;2023-04-03T07:59:06;13.80;48.50
10451;DHT22;5273;51.290;6.918;2023-04-03T08:01:33;13.80;49.60
10451;DHT22;5273;51.290;6.918;2023-04-03T08:04:00;14.10;47.10
10451;DHT22;5273;51.290;6.918;2023-04-03T08:06:27;14.20;47.50
10451;DHT22;5273;51.290;6.918;2023-04-03T08:08:57;14.60;47.50
10451;DHT22;5273;51.290;6.918;2023-04-03T08:11:24;15.30;44.70
10451;DHT22;5273;51.290;6.918;2023-04-03T08:13:52;15.00;43.80
10451;DHT22;5273;51.290;6.918;2023-04-03T08:16:21;15.20;44.00
10451;DHT22;5273;51.290;6.918;2023-04-03T08:18:49;15.70;43.40
10451;DHT22;5273;51.290;6.918;2023-04-03T08:21:16;16.40;41.80
10451;DHT22;5273;51.290;6.918;2023-04-03T08:23:43;16.90;39.80
10451;DHT22;5273;51.290;6.918;2023-04-03T08:26:13;16.50;39.10
10451;DHT22;5273;51.290;6.918;2023-04-03T08:28:40;17.10;40.80
10451;DHT22;5273;51.290;6.918;2023-04-03T08:31:10;17.50;38.80
10451;DHT22;5273;51.290;6.918;2023-04-03T08:33:37;18.10;38.80
10451;DHT22;5273;51.290;6.918;2023-04-03T08:36:06;18.90;35.10
10451;DHT22;5273;51.290;6.918;2023-04-03T08:38:34;18.30;32.90
10451;DHT22;5273;51.290;6.918;2023-04-03T08:41:12;17.60;34.00
10451;DHT22;5273;51.290;6.918;2023-04-03T08:43:53;16.90;35.20
10451;DHT22;5273;51.290;6.918;2023-04-03T08:46:26;16.30;34.40
10451;DHT22;5273;51.290;6.918;2023-04-03T08:48:57;16.50;35.60
10451;DHT22;5273;51.290;6.918;2023-04-03T08:51:26;16.80;34.60
10451;DHT22;5273;51.290;6.918;2023-04-03T08:53:57;16.50;34.70
10451;DHT22;5273;51.290;6.918;2023-04-03T08:56:27;17.90;35.60
10451;DHT22;5273;51.290;6.918;2023-04-03T08:58:57;16.80;35.10
10451;DHT22;5273;51.290;6.918;2023-04-03T09:01:27;17.50;34.10
10451;DHT22;5273;51.290;6.918;2023-04-03T09:03:56;18.20;35.00
10451;DHT22;5273;51.290;6.918;2023-04-03T09:06:25;18.60;32.10
10451;DHT22;5273;51.290;6.918;2023-04-03T09:09:06;18.40;31.60
10451;DHT22;5273;51.290;6.918;2023-04-03T09:11:47;17.80;31.90
10451;DHT22;5273;51.290;6.918;2023-04-03T09:14:23;18.20;33.00
10451;DHT22;5273;51.290;6.918;2023-04-03T09:16:55;18.60;31.50
10451;DHT22;5273;51.290;6.918;2023-04-03T09:19:33;18.90;30.10
10451;DHT22;5273;51.290;6.918;2023-04-03T09:22:12;19.70;29.40
10451;DHT22;5273;51.290;6.918;2023-04-03T09:24:41;19.10;28.70
10451;DHT22;5273;51.290;6.918;2023-04-03T09:27:11;18.90;28.10
10451;DHT22;5273;51.290;6.918;2023-04-03T09:29:40;17.90;27.70
10451;DHT22;5273;51.290;6.918;2023-04-03T09:32:19;17.30;27.60
10451;DHT22;5273;51.290;6.918;2023-04-03T09:34:49;17.40;27.40
10451;DHT22;5273;51.290;6.918;2023-04-03T09:37:39;17.40;27.30
10451;DHT22;5273;51.290;6.918;2023-04-03T09:40:27;17.40;28.00
10451;DHT22;5273;51.290;6.918;2023-04-03T09:42:57;17.60;27.10
10451;DHT22;5273;51.290;6.918;2023-04-03T09:45:26;17.50;27.30
10451;DHT22;5273;51.290;6.918;2023-04-03T09:48:06;17.80;27.50
10451;DHT22;5273;51.290;6.918;2023-04-03T09:50:34;17.90;26.90
10451;DHT22;5273;51.290;6.918;2023-04-03T09:53:05;18.10;27.10
10451;DHT22;5273;51.290;6.918;2023-04-03T09:55:42;18.60;32.00
10451;DHT22;5273;51.290;6.918;2023-04-03T09:58:25;19.00;26.80
10451;DHT22;5273;51.290;6.918;2023-04-03T10:00:55;17.30;26.80
10451;DHT22;5273;51.290;6.918;2023-04-03T10:03:25;16.60;27.50
10451;DHT22;5273;51.290;6.918;2023-04-03T10:05:52;16.80;28.40
10451;DHT22;5273;51.290;6.918;2023-04-03T10:08:23;17.60;28.70
10451;DHT22;5273;51.290;6.918;2023-04-03T10:11:09;18.00;28.90
10451;DHT22;5273;51.290;6.918;2023-04-03T10:13:49;17.20;27.30
10451;DHT22;5273;51.290;6.918;2023-04-03T10:16:18;18.40;27.20
10451;DHT22;5273;51.290;6.918;2023-04-03T10:18:52;20.30;29.10
10451;DHT22;5273;51.290;6.918;2023-04-03T10:21:33;18.90;28.20
10451;DHT22;5273;51.290;6.918;2023-04-03T10:24:08;19.80;29.00
10451;DHT22;5273;51.290;6.918;2023-04-03T10:26:41;20.10;26.90
10451;DHT22;5273;51.290;6.918;2023-04-03T10:29:21;20.10;26.50
10451;DHT22;5273;51.290;6.918;2023-04-03T10:31:59;19.60;26.60
10451;DHT22;5273;51.290;6.918;2023-04-03T10:34:30;18.90;26.80
10451;DHT22;5273;51.290;6.918;2023-04-03T10:37:05;18.60;27.70
10451;DHT22;5273;51.290;6.918;2023-04-03T10:39:41;18.20;28.50
10451;DHT22;5273;51.290;6.918;2023-04-03T10:42:16;17.70;28.30
10451;DHT22;5273;51.290;6.918;2023-04-03T10:47:51;16.20;30.60
10451;DHT22;5273;51.290;6.918;2023-04-03T10:50:31;15.30;31.30
10451;DHT22;5273;51.290;6.918;2023-04-03T10:53:04;14.80;33.80
10451;DHT22;5273;51.290;6.918;2023-04-03T10:55:36;14.80;32.20
10451;DHT22;5273;51.290;6.918;2023-04-03T10:58:06;12.40;31.40
10451;DHT22;5273;51.290;6.918;2023-04-03T11:00:39;13.20;32.00
10451;DHT22;5273;51.290;6.918;2023-04-03T11:03:12;13.60;31.30
10451;DHT22;5273;51.290;6.918;2023-04-03T11:05:43;13.30;33.10
10451;DHT22;5273;51.290;6.918;2023-04-03T11:08:17;13.40;36.60
10451;DHT22;5273;51.290;6.918;2023-04-03T11:10:50;13.40;35.90
10451;DHT22;5273;51.290;6.918;2023-04-03T11:13:19;13.40;35.30
10451;DHT22;5273;51.290;6.918;2023-04-03T11:15:48;13.50;33.80
10451;DHT22;5273;51.290;6.918;2023-04-03T11:18:20;13.30;34.40
10451;DHT22;5273;51.290;6.918;2023-04-03T11:20:57;13.20;34.20
10451;DHT22;5273;51.290;6.918;2023-04-03T11:23:26;12.80;35.00
10451;DHT22;5273;51.290;6.918;2023-04-03T11:26:01;12.90;33.40
10451;DHT22;5273;51.290;6.918;2023-04-03T11:28:33;12.50;35.80
10451;DHT22;5273;51.290;6.918;2023-04-03T11:31:10;12.10;34.30
10451;DHT22;5273;51.290;6.918;2023-04-03T11:33:47;13.20;36.80
10451;DHT22;5273;51.290;6.918;2023-04-03T11:36:21;12.10;36.20
10451;DHT22;5273;51.290;6.918;2023-04-03T11:38:52;12.20;34.80
10451;DHT22;5273;51.290;6.918;2023-04-03T11:41:26;12.30;36.70
10451;DHT22;5273;51.290;6.918;2023-04-03T11:43:59;12.40;36.10
10451;DHT22;5273;51.290;6.918;2023-04-03T11:46:49;11.70;35.70
10451;DHT22;5273;51.290;6.918;2023-04-03T11:52:58;12.10;34.90
10451;DHT22;5273;51.290;6.918;2023-04-03T11:55:43;12.30;35.00
10451;DHT22;5273;51.290;6.918;2023-04-03T11:58:15;13.40;35.90
10451;DHT22;5273;51.290;6.918;2023-04-03T12:01:04;12.40;35.60
10451;DHT22;5273;51.290;6.918;2023-04-03T12:10:12;12.30;34.20
10451;DHT22;5273;51.290;6.918;2023-04-03T12:12:41;12.00;34.50
10451;DHT22;5273;51.290;6.918;2023-04-03T12:18:56;11.60;34.50
10451;DHT22;5273;51.290;6.918;2023-04-03T12:24:32;12.70;35.60
10451;DHT22;5273;51.290;6.918;2023-04-03T12:27:13;11.20;34.30
10451;DHT22;5273;51.290;6.918;2023-04-03T12:29:47;11.30;35.00
10451;DHT22;5273;51.290;6.918;2023-04-03T12:32:26;11.20;34.30
10451;DHT22;5273;51.290;6.918;2023-04-03T12:35:07;11.20;35.20
10451;DHT22;5273;51.290;6.918;2023-04-03T12:37:48;11.10;33.60
10451;DHT22;5273;51.290;6.918;2023-04-03T12:40:24;11.20;37.30
10451;DHT22;5273;51.290;6.918;2023-04-03T12:43:20;11.30;37.30
10451;DHT22;5273;51.290;6.918;2023-04-03T12:45:56;11.50;35.70
10451;DHT22;5273;51.290;6.918;2023-04-03T12:48:26;12.60;35.60
10451;DHT22;5273;51.290;6.918;2023-04-03T12:50:56;11.40;34.60
10451;DHT22;5273;51.290;6.918;2023-04-03T12:53:25;11.20;35.40
10451;DHT22;5273;51.290;6.918;2023-04-03T12:55:54;11.10;35.60
10451;DHT22;5273;51.290;6.918;2023-04-03T12:58:24;11.00;35.40
10451;DHT22;5273;51.290;6.918;2023-04-03T13:01:03;11.10;35.40
10451;DHT22;5273;51.290;6.918;2023-04-03T13:03:30;11.20;35.70
10451;DHT22;5273;51.290;6.918;2023-04-03T13:05:59;9.70;36.00
10451;DHT22;5273;51.290;6.918;2023-04-03T13:08:27;11.00;36.60
10451;DHT22;5273;51.290;6.918;2023-04-03T13:10:56;10.90;36.80
10451;DHT22;5273;51.290;6.918;2023-04-03T13:13:25;10.90;47.10
10451;DHT22;5273;51.290;6.918;2023-04-03T13:15:52;10.90;38.20
10451;DHT22;5273;51.290;6.918;2023-04-03T13:18:29;11.10;38.30
10451;DHT22;5273;51.290;6.918;2023-04-03T13:21:00;11.10;37.90
10451;DHT22;5273;51.290;6.918;2023-04-03T13:23:29;11.20;38.40
10451;DHT22;5273;51.290;6.918;2023-04-03T13:25:57;11.40;40.30
10451;DHT22;5273;51.290;6.918;2023-04-03T13:28:30;11.60;37.40
10451;DHT22;5273;51.290;6.918;2023-04-03T13:31:14;11.40;37.00
10451;DHT22;5273;51.290;6.918;2023-04-03T13:33:55;11.30;37.80
10451;DHT22;5273;51.290;6.918;2023-04-03T13:36:24;10.80;36.60
10451;DHT22;5273;51.290;6.918;2023-04-03T13:39:05;10.50;37.70
10451;DHT22;5273;51.290;6.918;2023-04-03T13:41:40;10.60;41.20
10451;DHT22;5273;51.290;6.918;2023-04-03T13:44:30;10.60;39.40
10451;DHT22;5273;51.290;6.918;2023-04-03T13:46:59;11.60;40.10
10451;DHT22;5273;51.290;6.918;2023-04-03T13:49:31;10.70;38.50
10451;DHT22;5273;51.290;6.918;2023-04-03T13:52:00;12.40;40.40
10451;DHT22;5273;51.290;6.918;2023-04-03T13:54:31;10.90;38.60
10451;DHT22;5273;51.290;6.918;2023-04-03T13:56:59;11.00;38.80
10451;DHT22;5273;51.290;6.918;2023-04-03T13:59:30;11.10;38.30
10451;DHT22;5273;51.290;6.918;2023-04-03T14:02:13;11.20;39.00
10451;DHT22;5273;51.290;6.918;2023-04-03T14:04:50;11.30;39.00
10451;DHT22;5273;51.290;6.918;2023-04-03T14:07:19;11.10;38.80
10451;DHT22;5273;51.290;6.918;2023-04-03T14:09:47;11.10;38.80
10451;DHT22;5273;51.290;6.918;2023-04-03T14:12:17;11.10;39.20
10451;DHT22;5273;51.290;6.918;2023-04-03T14:14:46;11.10;47.30
10451;DHT22;5273;51.290;6.918;2023-04-03T14:17:16;11.10;38.00
10451;DHT22;5273;51.290;6.918;2023-04-03T14:19:43;11.10;38.80
10451;DHT22;5273;51.290;6.918;2023-04-03T14:22:15;11.10;38.20
10451;DHT22;5273;51.290;6.918;2023-04-03T14:24:42;11.00;40.10
10451;DHT22;5273;51.290;6.918;2023-04-03T14:27:15;10.00;38.00
10451;DHT22;5273;51.290;6.918;2023-04-03T14:29:43;10.70;38.20
10451;DHT22;5273;51.290;6.918;2023-04-03T14:32:12;9.70;38.50
10451;DHT22;5273;51.290;6.918;2023-04-03T14:34:39;10.50;39.80
10451;DHT22;5273;51.290;6.918;2023-04-03T14:37:10;9.90;40.90
10451;DHT22;5273;51.290;6.918;2023-04-03T14:39:37;10.60;40.70
10451;DHT22;5273;51.290;6.918;2023-04-03T14:42:04;10.80;39.80
10451;DHT22;5273;51.290;6.918;2023-04-03T14:44:32;10.80;39.20
10451;DHT22;5273;51.290;6.918;2023-04-03T14:46:59;10.80;39.10
10451;DHT22;5273;51.290;6.918;2023-04-03T14:49:28;10.40;49.20
10451;DHT22;5273;51.290;6.918;2023-04-03T14:51:56;9.60;40.10
10451;DHT22;5273;51.290;6.918;2023-04-03T14:54:23;10.40;40.70
10451;DHT22;5273;51.290;6.918;2023-04-03T14:56:53;10.30;39.40
10451;DHT22;5273;51.290;6.918;2023-04-03T14:59:21;10.30;39.90
10451;DHT22;5273;51.290;6.918;2023-04-03T15:01:48;10.20;40.00
10451;DHT22;5273;51.290;6.918;2023-04-03T15:04:16;10.30;40.30
10451;DHT22;5273;51.290;6.918;2023-04-03T15:06:46;12.20;41.80
10451;DHT22;5273;51.290;6.918;2023-04-03T15:09:19;10.40;39.80
10451;DHT22;5273;51.290;6.918;2023-04-03T15:14:14;10.20;49.40
10451;DHT22;5273;51.290;6.918;2023-04-03T15:16:41;10.00;40.50
10451;DHT22;5273;51.290;6.918;2023-04-03T15:19:07;9.90;49.80
10451;DHT22;5273;51.290;6.918;2023-04-03T15:21:35;10.40;40.80
10451;DHT22;5273;51.290;6.918;2023-04-03T15:24:03;9.30;41.30
10451;DHT22;5273;51.290;6.918;2023-04-03T15:26:31;10.20;40.40
10451;DHT22;5273;51.290;6.918;2023-04-03T15:28:58;10.20;40.20
10451;DHT22;5273;51.290;6.918;2023-04-03T15:31:25;10.20;40.30
10451;DHT22;5273;51.290;6.918;2023-04-03T15:33:52;10.50;40.40
10451;DHT22;5273;51.290;6.918;2023-04-03T15:36:19;10.00;40.40
10451;DHT22;5273;51.290;6.918;2023-04-03T15:38:46;10.00;40.70
10451;DHT22;5273;51.290;6.918;2023-04-03T15:41:14;9.70;40.60
10451;DHT22;5273;51.290;6.918;2023-04-03T15:46:08;9.60;50.80
10451;DHT22;5273;51.290;6.918;2023-04-03T15:48:36;9.60;41.60
10451;DHT22;5273;51.290;6.918;2023-04-03T15:51:03;9.40;51.50
10451;DHT22;5273;51.290;6.918;2023-04-03T15:53:30;9.50;51.50
10451;DHT22;5273;51.290;6.918;2023-04-03T15:55:57;9.10;51.60
10451;DHT22;5273;51.290;6.918;2023-04-03T15:58:25;9.10;42.10
10451;DHT22;5273;51.290;6.918;2023-04-03T16:00:51;9.30;52.70
10451;DHT22;5273;51.290;6.918;2023-04-03T16:03:20;9.20;42.90
10451;DHT22;5273;51.290;6.918;2023-04-03T16:05:47;9.20;43.00
10451;DHT22;5273;51.290;6.918;2023-04-03T16:08:28;9.20;52.90
10451;DHT22;5273;51.290;6.918;2023-04-03T16:10:58;6.60;50.50
10451;DHT22;5273;51.290;6.918;2023-04-03T16:13:26;9.50;52.80
10451;DHT22;5273;51.290;6.918;2023-04-03T16:15:53;9.20;43.30
10451;DHT22;5273;51.290;6.918;2023-04-03T16:18:21;9.20;43.70
10451;DHT22;5273;51.290;6.918;2023-04-03T16:20:48;9.20;44.00
10451;DHT22;5273;51.290;6.918;2023-04-03T16:23:15;9.60;53.20
10451;DHT22;5273;51.290;6.918;2023-04-03T16:25:41;9.30;44.00
10451;DHT22;5273;51.290;6.918;2023-04-03T16:28:11;9.40;44.20
10451;DHT22;5273;51.290;6.918;2023-04-03T16:30:41;9.20;43.40
10451;DHT22;5273;51.290;6.918;2023-04-03T16:33:08;9.20;43.80
10451;DHT22;5273;51.290;6.918;2023-04-03T16:35:35;9.10;43.80
10451;DHT22;5273;51.290;6.918;2023-04-03T16:38:02;10.40;44.70
10451;DHT22;5273;51.290;6.918;2023-04-03T16:40:30;8.80;53.90
10451;DHT22;5273;51.290;6.918;2023-04-03T16:42:56;8.60;53.60
10451;DHT22;5273;51.290;6.918;2023-04-03T16:45:23;8.70;44.60
10451;DHT22;5273;51.290;6.918;2023-04-03T16:47:51;8.60;45.00
10451;DHT22;5273;51.290;6.918;2023-04-03T16:50:18;8.60;54.60
10451;DHT22;5273;51.290;6.918;2023-04-03T16:52:45;8.60;45.60
10451;DHT22;5273;51.290;6.918;2023-04-03T16:55:12;8.60;45.00
10451;DHT22;5273;51.290;6.918;2023-04-03T17:00:07;8.40;54.40
10451;DHT22;5273;51.290;6.918;2023-04-03T17:02:34;8.50;54.00
10451;DHT22;5273;51.290;6.918;2023-04-03T17:05:03;8.20;44.90
10451;DHT22;5273;51.290;6.918;2023-04-03T17:09:57;8.20;56.00
10451;DHT22;5273;51.290;6.918;2023-04-03T17:12:24;8.00;46.20
10451;DHT22;5273;51.290;6.918;2023-04-03T17:14:50;8.00;48.80
10451;DHT22;5273;51.290;6.918;2023-04-03T17:17:21;8.00;46.30
10451;DHT22;5273;51.290;6.918;2023-04-03T17:19:48;7.80;46.40
10451;DHT22;5273;51.290;6.918;2023-04-03T17:22:16;7.90;47.20
10451;DHT22;5273;51.290;6.918;2023-04-03T17:24:43;7.80;47.70
10451;DHT22;5273;51.290;6.918;2023-04-03T17:32:04;7.60;58.00
10451;DHT22;5273;51.290;6.918;2023-04-03T17:37:01;7.20;57.00
10451;DHT22;5273;51.290;6.918;2023-04-03T17:39:29;7.30;47.30
10451;DHT22;5273;51.290;6.918;2023-04-03T17:41:56;7.30;57.80
10451;DHT22;5273;51.290;6.918;2023-04-03T17:51:47;7.10;47.30
10451;DHT22;5273;51.290;6.918;2023-04-03T17:56:42;6.90;48.30
10451;DHT22;5273;51.290;6.918;2023-04-03T18:06:37;6.80;48.60
10451;DHT22;5273;51.290;6.918;2023-04-03T18:09:07;6.70;48.60
10451;DHT22;5273;51.290;6.918;2023-04-03T18:14:05;6.70;48.60
10451;DHT22;5273;51.290;6.918;2023-04-03T18:23:55;6.50;49.40
10451;DHT22;5273;51.290;6.918;2023-04-03T18:26:25;6.40;49.80
10451;DHT22;5273;51.290;6.918;2023-04-03T18:28:55;6.40;49.80
10451;DHT22;5273;51.290;6.918;2023-04-03T18:31:24;6.40;50.20
10451;DHT22;5273;51.290;6.918;2023-04-03T18:46:09;6.20;50.80
10451;DHT22;5273;51.290;6.918;2023-04-03T18:48:38;5.30;50.10
10451;DHT22;5273;51.290;6.918;2023-04-03T18:51:06;6.30;62.10
10451;DHT22;5273;51.290;6.918;2023-04-03T19:05:50;5.80;51.20
10451;DHT22;5273;51.290;6.918;2023-04-03T19:23:01;5.60;52.10
10451;DHT22;5273;51.290;6.918;2023-04-03T19:40:17;5.40;53.40
10451;DHT22;5273;51.290;6.918;2023-04-03T19:45:11;5.30;53.70
10451;DHT22;5273;51.290;6.918;2023-04-03T19:57:29;5.10;54.10
10451;DHT22;5273;51.290;6.918;2023-04-03T20:14:40;5.00;54.30
10451;DHT22;5273;51.290;6.918;2023-04-03T20:31:55;4.90;54.60
10451;DHT22;5273;51.290;6.918;2023-04-03T20:49:12;4.80;55.30
10451;DHT22;5273;51.290;6.918;2023-04-03T21:01:30;4.50;57.50
10451;DHT22;5273;51.290;6.918;2023-04-03T21:04:01;4.40;57.40
10451;DHT22;5273;51.290;6.918;2023-04-03T21:35:39;4.20;59.50
10451;DHT22;5273;51.290;6.918;2023-04-03T21:52:53;4.00;61.00
10451;DHT22;5273;51.290;6.918;2023-04-03T21:57:49;4.00;61.00
10451;DHT22;5273;51.290;6.918;2023-04-03T22:00:19;3.90;60.90
10451;DHT22;5273;51.290;6.918;2023-04-03T22:07:42;3.90;61.60
10451;DHT22;5273;51.290;6.918;2023-04-03T22:10:11;3.80;61.90
10451;DHT22;5273;51.290;6.918;2023-04-03T22:15:08;2.90;64.40
10451;DHT22;5273;51.290;6.918;2023-04-03T22:27:27;3.50;66.10
10451;DHT22;5273;51.290;6.918;2023-04-03T22:44:38;3.30;65.90
10451;DHT22;5273;51.290;6.918;2023-04-03T23:01:49;3.30;66.20
10451;DHT22;5273;51.290;6.918;2023-04-03T23:19:00;3.20;65.50
10451;DHT22;5273;51.290;6.918;2023-04-03T23:36:11;3.10;69.30
10451;DHT22;5273;51.290;6.918;2023-04-03T23:53:24;2.90;71.10
